Torrens — MHBK6 — position and weather

sailwx.info

Track history (hours):
 
Tides and Currents Weather Stations Pressure Air Temp Water Temp Dewpoint Dewpoint Depression Visibility Wind Speed Wind Dir Waves Ship Positions

Torrens

Last reported at 2018-May-14 07:14 UTC. Time now 2018-May-21 03:23 UTC.
Position S 33°00' W 071°57'.

Length 200 m; draft 9.2 m.

Type: Cargo ship. MMSI: 232248000.

Date/timePositionNaut miles runAvg speedWind from/ knotsBaromVisibWave heightAir tempDewpointWater temp
2018-May-14 07:14S 33°00' W 071°57'415.8
2018-May-14 06:59S 32°56' W 071°57'815.8
2018-May-14 06:30S 32°49' W 071°59'815.9
2018-May-14 05:59S 32°41' W 072°01'  
2018-May-06 19:30N 09°11' W 079°52'4 8.4
2018-May-06 18:59N 09°14' W 079°55'2 4.7
2018-May-06 18:31N 09°16' W 079°55'0 0.4
2018-May-06 18:00N 09°16' W 079°55'0 0.4
2018-May-06 17:27N 09°17' W 079°55'0 0.5
2018-May-06 17:00N 09°17' W 079°55'0 0.2
2018-May-06 16:30N 09°17' W 079°55'1 1.2
2018-May-06 16:00N 09°17' W 079°55'2 2.9
2018-May-06 15:30N 09°19' W 079°55'2 3.8
2018-May-06 15:01N 09°21' W 079°55'2 4.5
2018-May-06 14:30N 09°23' W 079°55'3 5.8
2018-May-06 14:00N 09°26' W 079°55'3 6.6
2018-May-06 13:30N 09°28' W 079°52'1 1.2
2018-May-06 13:00N 09°27' W 079°51'0 0.2
2018-May-06 12:30N 09°27' W 079°51'0 0.0
2018-May-06 12:00N 09°27' W 079°51'0 0.0
2018-May-06 11:30N 09°27' W 079°51'0 0.0
2018-May-06 11:00N 09°27' W 079°51'0 0.0
2018-May-06 10:30N 09°27' W 079°51'0 0.0
2018-May-06 10:00N 09°27' W 079°51'0 0.0
2018-May-06 09:30N 09°27' W 079°51'0 0.0
2018-May-06 09:00N 09°27' W 079°51'0 0.0
2018-May-06 08:30N 09°27' W 079°51'0 0.0
2018-May-06 08:00N 09°27' W 079°51'0 0.0
2018-May-06 07:30N 09°27' W 079°51'0 0.0
2018-May-06 07:00N 09°27' W 079°51'0 0.0
2018-May-06 06:30N 09°27' W 079°51'0 0.0
2018-May-06 06:00N 09°27' W 079°51'0 0.0
2018-May-06 05:30N 09°27' W 079°51'0 0.0
2018-May-06 05:00N 09°27' W 079°51'0 0.0
2018-May-06 04:29N 09°27' W 079°51'0 0.1
2018-May-06 03:59N 09°27' W 079°51'1 1.6
2018-May-06 03:30N 09°27' W 079°52'5 9.0
2018-May-06 03:00N 09°23' W 079°54'1 2.1
2018-May-06 02:30N 09°22' W 079°53'0 0.0
2018-May-06 02:00N 09°22' W 079°53'0 0.0
2018-May-06 01:30N 09°22' W 079°53'0 0.0
2018-May-06 01:00N 09°22' W 079°53'0 0.0
2018-May-06 00:30N 09°22' W 079°53'0 0.0
2018-May-06 00:00N 09°22' W 079°53'0 0.0
2018-May-05 23:30N 09°22' W 079°53'0 0.0
2018-May-05 23:00N 09°22' W 079°53'0 0.0
2018-May-05 22:30N 09°22' W 079°53'0 0.0
2018-May-05 22:00N 09°22' W 079°53'0 0.0
2018-May-05 21:30N 09°22' W 079°53'0 0.0
2018-May-05 21:00N 09°22' W 079°53'0 0.0
2018-May-05 20:30N 09°22' W 079°53'0 0.0
2018-May-05 20:00N 09°22' W 079°53'0 0.0
2018-May-05 19:30N 09°22' W 079°53'0 0.0
2018-May-05 19:00N 09°22' W 079°53'0 0.0
2018-May-05 18:30N 09°22' W 079°53'0 0.0
2018-May-05 10:12N 09°22' W 079°53'0 0.0
2018-May-05 10:00N 09°22' W 079°53'0 0.0
2018-May-05 09:30N 09°22' W 079°53'0 0.0
2018-May-05 09:00N 09°22' W 079°53'0 0.0
2018-May-05 08:30N 09°22' W 079°53'0 0.0
2018-May-05 08:00N 09°22' W 079°53'0 0.0
2018-May-05 07:30N 09°22' W 079°53'0 0.0
2018-May-05 07:00N 09°22' W 079°53'0 0.0
2018-May-05 06:30N 09°22' W 079°53'0 0.0
2018-May-05 06:00N 09°22' W 079°53'0 0.0
2018-May-05 05:30N 09°22' W 079°53'0 0.0
2018-May-05 05:00N 09°22' W 079°53'0 0.0
2018-May-05 04:30N 09°22' W 079°53'0 0.0
2018-May-05 04:00N 09°22' W 079°53'0 0.0
2018-May-05 03:30N 09°22' W 079°53'0 0.0
2018-May-05 03:00N 09°22' W 079°53'0 0.0
2018-May-05 02:30N 09°22' W 079°53'0 0.0
2018-May-05 02:00N 09°22' W 079°53'0 0.0
2018-May-05 01:30N 09°22' W 079°53'0 0.0
2018-May-05 01:00N 09°22' W 079°53'0 0.0
2018-May-05 00:30N 09°22' W 079°53'0 0.0
2018-May-04 23:57N 09°22' W 079°53'0 0.0
2018-May-04 23:30N 09°22' W 079°53'0 0.0
2018-May-04 23:00N 09°22' W 079°53'0 0.0
2018-May-04 22:30N 09°22' W 079°53'0 0.0
2018-May-04 22:00N 09°22' W 079°53'0 0.0
2018-May-04 21:30N 09°22' W 079°53'0 0.0
2018-May-04 21:00N 09°22' W 079°53'0 0.0
2018-May-04 20:30N 09°22' W 079°53'0 0.0
2018-May-04 20:00N 09°22' W 079°53'0 0.0
2018-May-04 19:30N 09°22' W 079°53'0 0.0
2018-May-04 19:00N 09°22' W 079°53'0 0.0
2018-May-04 18:30N 09°22' W 079°53'0 0.0
2018-May-04 18:00N 09°22' W 079°53'0 0.0
2018-May-04 17:30N 09°22' W 079°53'0 0.0
2018-May-04 17:00N 09°22' W 079°53'0 0.0
2018-May-04 16:30N 09°22' W 079°53'0 0.0
2018-May-04 16:00N 09°22' W 079°53'0 0.0
2018-May-04 15:30N 09°22' W 079°53'0 0.0
2018-May-04 15:00N 09°22' W 079°53'0 0.0
2018-May-04 14:30N 09°22' W 079°53'0 0.0
2018-May-04 14:00N 09°22' W 079°53'0 0.0
2018-May-04 13:30N 09°22' W 079°53'0 0.0
2018-May-04 13:00N 09°22' W 079°53'0 0.0
2018-May-04 12:30N 09°22' W 079°53'0 0.0
2018-May-04 12:00N 09°22' W 079°53'0 0.0
2018-May-04 11:30N 09°22' W 079°53'0 0.0
2018-May-04 11:00N 09°22' W 079°53'0 0.0
2018-May-04 10:30N 09°22' W 079°53'0 0.0
2018-May-04 10:00N 09°22' W 079°53'0 0.0
2018-May-04 09:30N 09°22' W 079°53'0 0.0
2018-May-04 09:00N 09°22' W 079°53'0 0.0
2018-May-04 08:30N 09°22' W 079°53'0 0.0
2018-May-04 08:00N 09°22' W 079°53'0 0.0
2018-May-04 07:30N 09°22' W 079°53'  
Track history (hours):
 
Tides and Currents Weather Stations Pressure Air Temp Water Temp Dewpoint Dewpoint Depression Visibility Wind Speed Wind Dir Waves Ship Positions

Torrens

Last reported at 2018-May-14 07:14 UTC. Time now 2018-May-21 03:23 UTC.
Position S 33°00' W 071°57'.

Length 200 m; draft 9.2 m.

Type: Cargo ship. MMSI: 232248000.

Date/timePositionNaut miles runAvg speedWind from/ knotsBaromVisibWave heightAir tempDewpointWater temp
2018-May-14 07:14S 33°00' W 071°57'415.8
2018-May-14 06:59S 32°56' W 071°57'815.8
2018-May-14 06:30S 32°49' W 071°59'815.9
2018-May-14 05:59S 32°41' W 072°01'  
2018-May-06 19:30N 09°11' W 079°52'4 8.4
2018-May-06 18:59N 09°14' W 079°55'2 4.7
2018-May-06 18:31N 09°16' W 079°55'0 0.4
2018-May-06 18:00N 09°16' W 079°55'0 0.4
2018-May-06 17:27N 09°17' W 079°55'0 0.5
2018-May-06 17:00N 09°17' W 079°55'0 0.2
2018-May-06 16:30N 09°17' W 079°55'1 1.2
2018-May-06 16:00N 09°17' W 079°55'2 2.9
2018-May-06 15:30N 09°19' W 079°55'2 3.8
2018-May-06 15:01N 09°21' W 079°55'2 4.5
2018-May-06 14:30N 09°23' W 079°55'3 5.8
2018-May-06 14:00N 09°26' W 079°55'3 6.6
2018-May-06 13:30N 09°28' W 079°52'1 1.2
2018-May-06 13:00N 09°27' W 079°51'0 0.2
2018-May-06 12:30N 09°27' W 079°51'0 0.0
2018-May-06 12:00N 09°27' W 079°51'0 0.0
2018-May-06 11:30N 09°27' W 079°51'0 0.0
2018-May-06 11:00N 09°27' W 079°51'0 0.0
2018-May-06 10:30N 09°27' W 079°51'0 0.0
2018-May-06 10:00N 09°27' W 079°51'0 0.0
2018-May-06 09:30N 09°27' W 079°51'0 0.0
2018-May-06 09:00N 09°27' W 079°51'0 0.0
2018-May-06 08:30N 09°27' W 079°51'0 0.0
2018-May-06 08:00N 09°27' W 079°51'0 0.0
2018-May-06 07:30N 09°27' W 079°51'0 0.0
2018-May-06 07:00N 09°27' W 079°51'0 0.0
2018-May-06 06:30N 09°27' W 079°51'0 0.0
2018-May-06 06:00N 09°27' W 079°51'0 0.0
2018-May-06 05:30N 09°27' W 079°51'0 0.0
2018-May-06 05:00N 09°27' W 079°51'0 0.0
2018-May-06 04:29N 09°27' W 079°51'0 0.1
2018-May-06 03:59N 09°27' W 079°51'1 1.6
2018-May-06 03:30N 09°27' W 079°52'5 9.0
2018-May-06 03:00N 09°23' W 079°54'1 2.1
2018-May-06 02:30N 09°22' W 079°53'0 0.0
2018-May-06 02:00N 09°22' W 079°53'0 0.0
2018-May-06 01:30N 09°22' W 079°53'0 0.0
2018-May-06 01:00N 09°22' W 079°53'0 0.0
2018-May-06 00:30N 09°22' W 079°53'0 0.0
2018-May-06 00:00N 09°22' W 079°53'0 0.0
2018-May-05 23:30N 09°22' W 079°53'0 0.0
2018-May-05 23:00N 09°22' W 079°53'0 0.0
2018-May-05 22:30N 09°22' W 079°53'0 0.0
2018-May-05 22:00N 09°22' W 079°53'0 0.0
2018-May-05 21:30N 09°22' W 079°53'0 0.0
2018-May-05 21:00N 09°22' W 079°53'0 0.0
2018-May-05 20:30N 09°22' W 079°53'0 0.0
2018-May-05 20:00N 09°22' W 079°53'0 0.0
2018-May-05 19:30N 09°22' W 079°53'0 0.0
2018-May-05 19:00N 09°22' W 079°53'0 0.0
2018-May-05 18:30N 09°22' W 079°53'0 0.0
2018-May-05 10:12N 09°22' W 079°53'0 0.0
2018-May-05 10:00N 09°22' W 079°53'0 0.0
2018-May-05 09:30N 09°22' W 079°53'0 0.0
2018-May-05 09:00N 09°22' W 079°53'0 0.0
2018-May-05 08:30N 09°22' W 079°53'0 0.0
2018-May-05 08:00N 09°22' W 079°53'0 0.0
2018-May-05 07:30N 09°22' W 079°53'0 0.0
2018-May-05 07:00N 09°22' W 079°53'0 0.0
2018-May-05 06:30N 09°22' W 079°53'0 0.0
2018-May-05 06:00N 09°22' W 079°53'0 0.0
2018-May-05 05:30N 09°22' W 079°53'0 0.0
2018-May-05 05:00N 09°22' W 079°53'0 0.0
2018-May-05 04:30N 09°22' W 079°53'0 0.0
2018-May-05 04:00N 09°22' W 079°53'0 0.0
2018-May-05 03:30N 09°22' W 079°53'0 0.0
2018-May-05 03:00N 09°22' W 079°53'0 0.0
2018-May-05 02:30N 09°22' W 079°53'0 0.0
2018-May-05 02:00N 09°22' W 079°53'0 0.0
2018-May-05 01:30N 09°22' W 079°53'0 0.0
2018-May-05 01:00N 09°22' W 079°53'0 0.0
2018-May-05 00:30N 09°22' W 079°53'0 0.0
2018-May-04 23:57N 09°22' W 079°53'0 0.0
2018-May-04 23:30N 09°22' W 079°53'0 0.0
2018-May-04 23:00N 09°22' W 079°53'0 0.0
2018-May-04 22:30N 09°22' W 079°53'0 0.0
2018-May-04 22:00N 09°22' W 079°53'0 0.0
2018-May-04 21:30N 09°22' W 079°53'0 0.0
2018-May-04 21:00N 09°22' W 079°53'0 0.0
2018-May-04 20:30N 09°22' W 079°53'0 0.0
2018-May-04 20:00N 09°22' W 079°53'0 0.0
2018-May-04 19:30N 09°22' W 079°53'0 0.0
2018-May-04 19:00N 09°22' W 079°53'0 0.0
2018-May-04 18:30N 09°22' W 079°53'0 0.0
2018-May-04 18:00N 09°22' W 079°53'0 0.0
2018-May-04 17:30N 09°22' W 079°53'0 0.0
2018-May-04 17:00N 09°22' W 079°53'0 0.0
2018-May-04 16:30N 09°22' W 079°53'0 0.0
2018-May-04 16:00N 09°22' W 079°53'0 0.0
2018-May-04 15:30N 09°22' W 079°53'0 0.0
2018-May-04 15:00N 09°22' W 079°53'0 0.0
2018-May-04 14:30N 09°22' W 079°53'0 0.0
2018-May-04 14:00N 09°22' W 079°53'0 0.0
2018-May-04 13:30N 09°22' W 079°53'0 0.0
2018-May-04 13:00N 09°22' W 079°53'0 0.0
2018-May-04 12:30N 09°22' W 079°53'0 0.0
2018-May-04 12:00N 09°22' W 079°53'0 0.0
2018-May-04 11:30N 09°22' W 079°53'0 0.0
2018-May-04 11:00N 09°22' W 079°53'0 0.0
2018-May-04 10:30N 09°22' W 079°53'0 0.0
2018-May-04 10:00N 09°22' W 079°53'0 0.0
2018-May-04 09:30N 09°22' W 079°53'0 0.0
2018-May-04 09:00N 09°22' W 079°53'0 0.0
2018-May-04 08:30N 09°22' W 079°53'0 0.0
2018-May-04 08:00N 09°22' W 079°53'0 0.0
2018-May-04 07:30N 09°22' W 079°53'  

Dump ship's entire track history